sensor_id;sensor_type;location;lat;lon;timestamp;noise_LAeq;noise_LA_min;noise_LA_max;noise_LA01;noise_LA95
58197;Laerm;43999;51.660;5.616;2023-05-20T00:00:52;54.70;37.70;68.63;;
58197;Laerm;43999;51.660;5.616;2023-05-20T00:03:19;58.52;39.46;86.98;;
58197;Laerm;43999;51.660;5.616;2023-05-20T00:05:47;43.58;38.67;62.21;;
58197;Laerm;43999;51.660;5.616;2023-05-20T00:08:17;52.26;39.08;72.28;;
58197;Laerm;43999;51.660;5.616;2023-05-20T00:10:46;46.05;39.08;57.98;;
58197;Laerm;43999;51.660;5.616;2023-05-20T00:13:14;50.46;39.21;65.88;;
58197;Laerm;43999;51.660;5.616;2023-05-20T00:15:41;54.99;39.08;69.80;;
58197;Laerm;43999;51.660;5.616;2023-05-20T00:18:09;54.24;40.98;75.23;;
58197;Laerm;43999;51.660;5.616;2023-05-20T00:20:36;49.26;39.08;66.40;;
58197;Laerm;43999;51.660;5.616;2023-05-20T00:23:03;65.85;39.92;88.98;;
58197;Laerm;43999;51.660;5.616;2023-05-20T00:25:31;50.11;39.08;71.29;;
58197;Laerm;43999;51.660;5.616;2023-05-20T00:27:59;45.00;37.70;65.01;;
58197;Laerm;43999;51.660;5.616;2023-05-20T00:30:26;59.03;38.95;84.39;;
58197;Laerm;43999;51.660;5.616;2023-05-20T00:32:54;53.96;40.98;70.90;;
58197;Laerm;43999;51.660;5.616;2023-05-20T00:35:21;50.31;39.34;67.20;;
58197;Laerm;43999;51.660;5.616;2023-05-20T00:37:49;49.78;39.21;64.79;;
58197;Laerm;43999;51.660;5.616;2023-05-20T00:40:16;50.23;39.92;65.25;;
58197;Laerm;43999;51.660;5.616;2023-05-20T00:42:44;51.58;38.95;68.44;;
58197;Laerm;43999;51.660;5.616;2023-05-20T00:45:11;49.51;39.34;66.93;;
58197;Laerm;43999;51.660;5.616;2023-05-20T00:47:41;51.21;39.58;70.13;;
58197;Laerm;43999;51.660;5.616;2023-05-20T00:50:10;50.02;38.95;74.26;;
58197;Laerm;43999;51.660;5.616;2023-05-20T00:52:38;51.14;39.34;71.11;;
58197;Laerm;43999;51.660;5.616;2023-05-20T00:55:08;53.75;39.70;71.59;;
58197;Laerm;43999;51.660;5.616;2023-05-20T00:57:37;54.53;38.67;84.20;;
58197;Laerm;43999;51.660;5.616;2023-05-20T01:00:06;52.26;39.70;73.48;;
58197;Laerm;43999;51.660;5.616;2023-05-20T01:02:34;48.46;38.87;65.85;;
58197;Laerm;43999;51.660;5.616;2023-05-20T01:05:02;48.60;38.52;66.05;;
58197;Laerm;43999;51.660;5.616;2023-05-20T01:07:29;56.44;38.37;68.99;;
58197;Laerm;43999;51.660;5.616;2023-05-20T01:09:58;53.39;39.92;68.06;;
58197;Laerm;43999;51.660;5.616;2023-05-20T01:12:46;52.72;39.34;73.13;;
58197;Laerm;43999;51.660;5.616;2023-05-20T01:15:16;52.27;38.67;67.73;;
58197;Laerm;43999;51.660;5.616;2023-05-20T01:17:50;47.11;39.21;59.75;;
58197;Laerm;43999;51.660;5.616;2023-05-20T01:20:20;52.02;39.08;68.78;;
58197;Laerm;43999;51.660;5.616;2023-05-20T01:22:56;48.51;38.67;68.16;;
58197;Laerm;43999;51.660;5.616;2023-05-20T01:25:24;56.41;38.67;70.59;;
58197;Laerm;43999;51.660;5.616;2023-05-20T01:27:55;43.00;38.21;59.85;;
58197;Laerm;43999;51.660;5.616;2023-05-20T01:30:37;48.61;38.95;73.84;;
58197;Laerm;43999;51.660;5.616;2023-05-20T01:33:11;43.13;38.67;59.82;;
58197;Laerm;43999;51.660;5.616;2023-05-20T01:35:41;58.61;38.95;76.96;;
58197;Laerm;43999;51.660;5.616;2023-05-20T01:38:10;52.78;38.52;72.34;;
58197;Laerm;43999;51.660;5.616;2023-05-20T01:40:38;54.40;39.21;68.43;;
58197;Laerm;43999;51.660;5.616;2023-05-20T01:43:08;53.28;38.81;69.44;;
58197;Laerm;43999;51.660;5.616;2023-05-20T01:45:36;52.90;38.81;71.04;;
58197;Laerm;43999;51.660;5.616;2023-05-20T01:48:06;53.64;38.81;72.07;;
58197;Laerm;43999;51.660;5.616;2023-05-20T01:50:34;52.15;39.46;68.11;;
58197;Laerm;43999;51.660;5.616;2023-05-20T01:53:01;43.64;38.67;57.45;;
58197;Laerm;43999;51.660;5.616;2023-05-20T01:55:30;43.36;38.05;59.92;;
58197;Laerm;43999;51.660;5.616;2023-05-20T01:57:59;42.89;38.67;60.28;;
58197;Laerm;43999;51.660;5.616;2023-05-20T02:00:27;44.72;38.95;61.06;;
58197;Laerm;43999;51.660;5.616;2023-05-20T02:02:54;49.07;38.81;63.20;;
58197;Laerm;43999;51.660;5.616;2023-05-20T02:05:23;50.01;38.81;64.41;;
58197;Laerm;43999;51.660;5.616;2023-05-20T02:07:51;44.52;38.81;62.10;;
58197;Laerm;43999;51.660;5.616;2023-05-20T02:10:20;56.93;39.81;78.36;;
58197;Laerm;43999;51.660;5.616;2023-05-20T02:12:47;47.79;38.67;68.13;;
58197;Laerm;43999;51.660;5.616;2023-05-20T02:15:15;50.98;38.52;69.83;;
58197;Laerm;43999;51.660;5.616;2023-05-20T02:17:42;53.77;39.08;68.90;;
58197;Laerm;43999;51.660;5.616;2023-05-20T02:20:11;45.46;38.81;65.63;;
58197;Laerm;43999;51.660;5.616;2023-05-20T02:22:40;53.20;39.70;69.02;;
58197;Laerm;43999;51.660;5.616;2023-05-20T02:25:09;43.51;38.37;60.30;;
58197;Laerm;43999;51.660;5.616;2023-05-20T02:27:37;52.73;38.05;67.48;;
58197;Laerm;43999;51.660;5.616;2023-05-20T02:30:07;45.55;38.67;64.88;;
58197;Laerm;43999;51.660;5.616;2023-05-20T02:32:35;43.41;38.05;59.73;;
58197;Laerm;43999;51.660;5.616;2023-05-20T02:35:03;44.97;38.52;60.64;;
58197;Laerm;43999;51.660;5.616;2023-05-20T02:37:31;50.39;40.03;63.88;;
58197;Laerm;43999;51.660;5.616;2023-05-20T02:39:58;44.51;39.70;54.82;;
58197;Laerm;43999;51.660;5.616;2023-05-20T02:42:25;45.03;40.13;58.79;;
58197;Laerm;43999;51.660;5.616;2023-05-20T02:44:53;44.95;39.70;60.77;;
58197;Laerm;43999;51.660;5.616;2023-05-20T02:47:25;44.38;40.23;55.21;;
58197;Laerm;43999;51.660;5.616;2023-05-20T02:49:53;48.39;40.03;62.95;;
58197;Laerm;43999;51.660;5.616;2023-05-20T02:52:20;51.28;40.03;65.73;;
58197;Laerm;43999;51.660;5.616;2023-05-20T02:54:48;52.56;40.13;69.05;;
58197;Laerm;43999;51.660;5.616;2023-05-20T02:57:15;49.14;40.62;65.35;;
58197;Laerm;43999;51.660;5.616;2023-05-20T02:59:42;45.69;40.23;61.38;;
58197;Laerm;43999;51.660;5.616;2023-05-20T03:02:10;49.02;39.58;62.53;;
58197;Laerm;43999;51.660;5.616;2023-05-20T03:04:38;44.51;40.43;57.36;;
58197;Laerm;43999;51.660;5.616;2023-05-20T03:07:07;49.75;40.13;62.78;;
58197;Laerm;43999;51.660;5.616;2023-05-20T03:09:35;47.87;39.81;61.89;;
58197;Laerm;43999;51.660;5.616;2023-05-20T03:12:02;47.70;39.70;64.66;;
58197;Laerm;43999;51.660;5.616;2023-05-20T03:14:30;46.76;39.46;65.42;;
58197;Laerm;43999;51.660;5.616;2023-05-20T03:16:57;47.88;39.81;64.39;;
58197;Laerm;43999;51.660;5.616;2023-05-20T03:19:26;48.26;39.92;63.79;;
58197;Laerm;43999;51.660;5.616;2023-05-20T03:21:54;52.38;40.53;66.65;;
58197;Laerm;43999;51.660;5.616;2023-05-20T03:24:23;48.10;40.62;69.87;;
58197;Laerm;43999;51.660;5.616;2023-05-20T03:26:50;51.97;40.23;67.37;;
58197;Laerm;43999;51.660;5.616;2023-05-20T03:29:18;44.55;40.43;54.04;;
58197;Laerm;43999;51.660;5.616;2023-05-20T03:31:46;53.65;40.62;68.61;;
58197;Laerm;43999;51.660;5.616;2023-05-20T03:34:13;49.35;40.33;65.09;;
58197;Laerm;43999;51.660;5.616;2023-05-20T03:36:41;51.58;40.62;66.58;;
58197;Laerm;43999;51.660;5.616;2023-05-20T03:39:08;55.02;41.06;68.63;;
58197;Laerm;43999;51.660;5.616;2023-05-20T03:41:36;54.78;40.89;71.57;;
58197;Laerm;43999;51.660;5.616;2023-05-20T03:44:04;50.66;40.43;64.29;;
58197;Laerm;43999;51.660;5.616;2023-05-20T03:46:31;54.77;41.14;67.57;;
58197;Laerm;43999;51.660;5.616;2023-05-20T03:49:00;52.32;40.53;69.55;;
58197;Laerm;43999;51.660;5.616;2023-05-20T03:51:28;52.87;40.33;69.67;;
58197;Laerm;43999;51.660;5.616;2023-05-20T03:54:02;52.27;41.11;68.94;;
58197;Laerm;43999;51.660;5.616;2023-05-20T03:56:30;54.71;41.30;68.37;;
58197;Laerm;43999;51.660;5.616;2023-05-20T03:58:57;56.07;41.30;68.07;;
58197;Laerm;43999;51.660;5.616;2023-05-20T04:01:25;47.39;40.43;65.61;;
58197;Laerm;43999;51.660;5.616;2023-05-20T04:03:52;45.08;39.46;57.94;;
58197;Laerm;43999;51.660;5.616;2023-05-20T04:06:19;48.78;41.30;68.79;;
58197;Laerm;43999;51.660;5.616;2023-05-20T04:08:49;50.42;40.45;66.11;;
58197;Laerm;43999;51.660;5.616;2023-05-20T04:11:19;46.17;39.92;65.24;;
58197;Laerm;43999;51.660;5.616;2023-05-20T04:13:47;55.48;39.46;70.83;;
58197;Laerm;43999;51.660;5.616;2023-05-20T04:16:15;47.27;39.92;71.95;;
58197;Laerm;43999;51.660;5.616;2023-05-20T04:18:42;53.61;40.62;72.31;;
58197;Laerm;43999;51.660;5.616;2023-05-20T04:21:12;50.86;40.03;72.93;;
58197;Laerm;43999;51.660;5.616;2023-05-20T04:23:42;53.19;40.43;70.28;;
58197;Laerm;43999;51.660;5.616;2023-05-20T04:26:09;53.71;40.03;69.78;;
58197;Laerm;43999;51.660;5.616;2023-05-20T04:28:37;50.30;40.33;63.37;;
58197;Laerm;43999;51.660;5.616;2023-05-20T04:31:05;45.25;39.21;65.67;;
58197;Laerm;43999;51.660;5.616;2023-05-20T04:33:35;48.92;40.53;68.95;;
58197;Laerm;43999;51.660;5.616;2023-05-20T04:36:10;51.03;40.53;65.85;;
58197;Laerm;43999;51.660;5.616;2023-05-20T04:38:41;54.78;41.89;73.62;;
58197;Laerm;43999;51.660;5.616;2023-05-20T04:41:10;51.29;41.22;63.77;;
58197;Laerm;43999;51.660;5.616;2023-05-20T04:43:39;55.24;40.71;78.53;;
58197;Laerm;43999;51.660;5.616;2023-05-20T04:46:07;62.26;40.89;82.04;;
58197;Laerm;43999;51.660;5.616;2023-05-20T04:48:35;56.11;41.46;71.97;;
58197;Laerm;43999;51.660;5.616;2023-05-20T04:51:03;57.75;42.22;73.62;;
58197;Laerm;43999;51.660;5.616;2023-05-20T04:53:31;56.02;42.35;71.07;;
58197;Laerm;43999;51.660;5.616;2023-05-20T04:56:00;54.30;40.80;69.05;;
58197;Laerm;43999;51.660;5.616;2023-05-20T04:58:28;51.76;41.61;67.81;;
58197;Laerm;43999;51.660;5.616;2023-05-20T05:00:58;46.64;41.53;61.78;;
58197;Laerm;43999;51.660;5.616;2023-05-20T05:03:25;55.51;42.22;70.09;;
58197;Laerm;43999;51.660;5.616;2023-05-20T05:05:57;53.62;41.81;71.63;;
58197;Laerm;43999;51.660;5.616;2023-05-20T05:08:25;53.37;42.59;68.47;;
58197;Laerm;43999;51.660;5.616;2023-05-20T05:10:53;58.42;42.82;72.75;;
58197;Laerm;43999;51.660;5.616;2023-05-20T05:13:20;53.76;41.96;67.36;;
58197;Laerm;43999;51.660;5.616;2023-05-20T05:15:57;59.03;42.93;70.30;;
58197;Laerm;43999;51.660;5.616;2023-05-20T05:18:25;57.26;43.58;77.34;;
58197;Laerm;43999;51.660;5.616;2023-05-20T05:21:05;56.45;41.96;68.55;;
58197;Laerm;43999;51.660;5.616;2023-05-20T05:23:34;49.46;41.22;65.50;;
58197;Laerm;43999;51.660;5.616;2023-05-20T05:26:02;58.25;44.43;67.33;;
58197;Laerm;43999;51.660;5.616;2023-05-20T05:28:29;59.57;42.47;75.76;;
58197;Laerm;43999;51.660;5.616;2023-05-20T05:30:57;56.32;44.19;74.33;;
58197;Laerm;43999;51.660;5.616;2023-05-20T05:33:25;56.31;42.35;71.27;;
58197;Laerm;43999;51.660;5.616;2023-05-20T05:35:53;60.01;43.14;76.03;;
58197;Laerm;43999;51.660;5.616;2023-05-20T05:38:25;56.61;41.68;69.02;;
58197;Laerm;43999;51.660;5.616;2023-05-20T05:40:52;53.57;41.61;67.56;;
58197;Laerm;43999;51.660;5.616;2023-05-20T05:43:20;57.22;41.53;74.16;;
58197;Laerm;43999;51.660;5.616;2023-05-20T05:45:48;63.33;44.35;80.71;;
58197;Laerm;43999;51.660;5.616;2023-05-20T05:48:15;58.52;44.03;71.48;;
58197;Laerm;43999;51.660;5.616;2023-05-20T05:50:45;58.74;44.87;72.87;;
58197;Laerm;43999;51.660;5.616;2023-05-20T05:53:15;57.78;41.22;68.91;;
58197;Laerm;43999;51.660;5.616;2023-05-20T05:55:46;60.87;46.73;75.15;;
58197;Laerm;43999;51.660;5.616;2023-05-20T05:58:14;59.55;45.57;69.42;;
58197;Laerm;43999;51.660;5.616;2023-05-20T06:00:42;55.95;44.23;70.65;;
58197;Laerm;43999;51.660;5.616;2023-05-20T06:03:10;60.58;45.11;77.33;;
58197;Laerm;43999;51.660;5.616;2023-05-20T06:05:37;64.29;43.44;82.13;;
58197;Laerm;43999;51.660;5.616;2023-05-20T06:08:04;64.49;46.02;82.97;;
58197;Laerm;43999;51.660;5.616;2023-05-20T06:10:34;57.04;44.15;73.94;;
58197;Laerm;43999;51.660;5.616;2023-05-20T06:13:01;59.77;43.04;80.74;;
58197;Laerm;43999;51.660;5.616;2023-05-20T06:15:30;61.88;46.48;84.08;;
58197;Laerm;43999;51.660;5.616;2023-05-20T06:17:58;55.64;42.16;68.92;;
58197;Laerm;43999;51.660;5.616;2023-05-20T06:20:26;63.52;43.54;78.72;;
58197;Laerm;43999;51.660;5.616;2023-05-20T06:22:54;61.45;44.03;73.80;;
58197;Laerm;43999;51.660;5.616;2023-05-20T06:25:24;61.01;43.54;73.99;;
58197;Laerm;43999;51.660;5.616;2023-05-20T06:27:52;60.54;44.43;75.14;;
58197;Laerm;43999;51.660;5.616;2023-05-20T06:30:20;59.92;44.03;72.82;;
58197;Laerm;43999;51.660;5.616;2023-05-20T06:32:48;60.50;45.23;76.65;;
58197;Laerm;43999;51.660;5.616;2023-05-20T06:35:17;60.15;44.69;73.63;;
58197;Laerm;43999;51.660;5.616;2023-05-20T06:37:44;62.23;47.65;76.97;;
58197;Laerm;43999;51.660;5.616;2023-05-20T06:40:13;61.20;46.55;76.94;;
58197;Laerm;43999;51.660;5.616;2023-05-20T06:42:41;62.72;47.22;80.97;;
58197;Laerm;43999;51.660;5.616;2023-05-20T06:45:09;62.53;50.25;76.25;;
58197;Laerm;43999;51.660;5.616;2023-05-20T06:47:41;65.14;47.95;92.85;;
58197;Laerm;43999;51.660;5.616;2023-05-20T06:50:10;65.64;51.28;84.52;;
58197;Laerm;43999;51.660;5.616;2023-05-20T06:52:37;59.75;48.70;79.30;;
58197;Laerm;43999;51.660;5.616;2023-05-20T06:55:06;62.77;45.27;79.64;;
58197;Laerm;43999;51.660;5.616;2023-05-20T06:57:35;59.96;47.67;73.37;;
58197;Laerm;43999;51.660;5.616;2023-05-20T07:00:04;61.34;47.86;77.94;;
58197;Laerm;43999;51.660;5.616;2023-05-20T07:02:36;61.92;47.76;75.07;;
58197;Laerm;43999;51.660;5.616;2023-05-20T07:05:06;61.88;47.76;80.68;;
58197;Laerm;43999;51.660;5.616;2023-05-20T07:07:34;64.81;48.57;81.09;;
58197;Laerm;43999;51.660;5.616;2023-05-20T07:10:05;63.35;46.69;74.73;;
58197;Laerm;43999;51.660;5.616;2023-05-20T07:12:33;67.42;58.66;79.01;;
58197;Laerm;43999;51.660;5.616;2023-05-20T07:15:05;66.32;57.51;76.87;;
58197;Laerm;43999;51.660;5.616;2023-05-20T07:17:33;63.00;52.52;72.04;;
58197;Laerm;43999;51.660;5.616;2023-05-20T07:20:01;61.78;52.17;72.19;;
58197;Laerm;43999;51.660;5.616;2023-05-20T07:22:31;61.15;50.04;69.50;;
58197;Laerm;43999;51.660;5.616;2023-05-20T07:25:13;64.88;51.41;82.13;;
58197;Laerm;43999;51.660;5.616;2023-05-20T07:27:41;62.88;52.40;74.55;;
58197;Laerm;43999;51.660;5.616;2023-05-20T07:30:09;62.68;51.77;75.15;;
58197;Laerm;43999;51.660;5.616;2023-05-20T07:32:39;65.37;49.69;83.43;;
58197;Laerm;43999;51.660;5.616;2023-05-20T07:35:08;64.36;49.33;77.98;;
58197;Laerm;43999;51.660;5.616;2023-05-20T07:37:35;64.11;50.25;87.82;;
58197;Laerm;43999;51.660;5.616;2023-05-20T07:40:04;60.30;48.70;76.50;;
58197;Laerm;43999;51.660;5.616;2023-05-20T07:42:32;61.47;50.56;74.73;;
58197;Laerm;43999;51.660;5.616;2023-05-20T07:45:02;65.06;51.70;83.64;;
58197;Laerm;43999;51.660;5.616;2023-05-20T07:47:31;63.98;51.44;75.69;;
58197;Laerm;43999;51.660;5.616;2023-05-20T07:49:59;63.06;52.56;74.12;;
58197;Laerm;43999;51.660;5.616;2023-05-20T07:52:28;63.83;49.58;81.00;;
58197;Laerm;43999;51.660;5.616;2023-05-20T07:54:59;66.12;54.97;84.07;;
58197;Laerm;43999;51.660;5.616;2023-05-20T07:57:27;62.07;51.82;74.23;;
58197;Laerm;43999;51.660;5.616;2023-05-20T07:59:56;65.82;53.41;84.86;;
58197;Laerm;43999;51.660;5.616;2023-05-20T08:02:23;67.00;52.30;80.37;;
58197;Laerm;43999;51.660;5.616;2023-05-20T08:04:51;64.86;53.19;82.15;;
58197;Laerm;43999;51.660;5.616;2023-05-20T08:07:19;66.08;53.50;86.42;;
58197;Laerm;43999;51.660;5.616;2023-05-20T08:09:52;67.77;54.77;85.00;;
58197;Laerm;43999;51.660;5.616;2023-05-20T08:12:20;62.67;52.56;78.87;;
58197;Laerm;43999;51.660;5.616;2023-05-20T08:14:48;64.47;52.19;81.81;;
58197;Laerm;43999;51.660;5.616;2023-05-20T08:17:17;64.71;54.41;81.90;;
58197;Laerm;43999;51.660;5.616;2023-05-20T08:19:45;63.31;52.91;81.12;;
58197;Laerm;43999;51.660;5.616;2023-05-20T08:22:13;61.94;50.61;75.13;;
58197;Laerm;43999;51.660;5.616;2023-05-20T08:24:40;70.55;52.02;91.77;;
58197;Laerm;43999;51.660;5.616;2023-05-20T08:27:09;63.08;51.09;78.92;;
58197;Laerm;43999;51.660;5.616;2023-05-20T08:29:39;62.07;49.93;73.72;;
58197;Laerm;43999;51.660;5.616;2023-05-20T08:32:08;63.47;49.56;79.54;;
58197;Laerm;43999;51.660;5.616;2023-05-20T08:34:35;63.10;54.48;74.75;;
58197;Laerm;43999;51.660;5.616;2023-05-20T08:37:03;77.11;55.78;100.33;;
58197;Laerm;43999;51.660;5.616;2023-05-20T08:39:31;66.40;53.69;80.00;;
58197;Laerm;43999;51.660;5.616;2023-05-20T08:41:58;63.63;55.01;80.49;;
58197;Laerm;43999;51.660;5.616;2023-05-20T08:44:28;62.70;51.68;81.29;;
58197;Laerm;43999;51.660;5.616;2023-05-20T08:46:57;63.97;53.56;78.21;;
58197;Laerm;43999;51.660;5.616;2023-05-20T08:49:25;68.44;54.37;86.83;;
58197;Laerm;43999;51.660;5.616;2023-05-20T08:51:52;64.78;53.64;82.13;;
58197;Laerm;43999;51.660;5.616;2023-05-20T08:54:21;66.28;54.04;80.59;;
58197;Laerm;43999;51.660;5.616;2023-05-20T08:56:52;63.75;51.63;86.54;;
58197;Laerm;43999;51.660;5.616;2023-05-20T08:59:22;73.42;53.42;95.36;;
58197;Laerm;43999;51.660;5.616;2023-05-20T09:01:49;67.51;54.77;86.06;;
58197;Laerm;43999;51.660;5.616;2023-05-20T09:04:17;65.31;54.32;83.42;;
58197;Laerm;43999;51.660;5.616;2023-05-20T09:06:46;65.84;51.54;88.16;;
58197;Laerm;43999;51.660;5.616;2023-05-20T09:09:15;67.38;53.13;90.75;;
58197;Laerm;43999;51.660;5.616;2023-05-20T09:11:46;68.59;55.23;88.50;;
58197;Laerm;43999;51.660;5.616;2023-05-20T09:14:14;65.60;57.00;81.28;;
58197;Laerm;43999;51.660;5.616;2023-05-20T09:16:41;70.72;52.34;92.58;;
58197;Laerm;43999;51.660;5.616;2023-05-20T09:19:09;64.02;55.53;82.06;;
58197;Laerm;43999;51.660;5.616;2023-05-20T09:21:41;63.00;51.40;81.61;;
58197;Laerm;43999;51.660;5.616;2023-05-20T09:24:08;63.67;52.47;79.70;;
58197;Laerm;43999;51.660;5.616;2023-05-20T09:26:35;68.96;52.31;93.53;;
58197;Laerm;43999;51.660;5.616;2023-05-20T09:29:03;65.94;55.44;81.39;;
58197;Laerm;43999;51.660;5.616;2023-05-20T09:31:32;69.68;54.75;90.52;;
58197;Laerm;43999;51.660;5.616;2023-05-20T09:34:00;66.47;55.46;84.42;;
58197;Laerm;43999;51.660;5.616;2023-05-20T09:36:29;66.78;52.22;87.89;;
58197;Laerm;43999;51.660;5.616;2023-05-20T09:39:06;63.51;54.67;79.57;;
58197;Laerm;43999;51.660;5.616;2023-05-20T09:42:08;65.65;54.17;80.53;;
58197;Laerm;43999;51.660;5.616;2023-05-20T09:44:41;63.75;52.04;82.97;;
58197;Laerm;43999;51.660;5.616;2023-05-20T09:47:09;64.86;51.70;74.70;;
58197;Laerm;43999;51.660;5.616;2023-05-20T09:49:40;67.70;55.44;91.66;;
58197;Laerm;43999;51.660;5.616;2023-05-20T09:52:09;67.59;55.03;88.64;;
58197;Laerm;43999;51.660;5.616;2023-05-20T09:54:43;67.37;56.16;83.50;;
58197;Laerm;43999;51.660;5.616;2023-05-20T09:57:11;67.95;57.13;84.33;;
58197;Laerm;43999;51.660;5.616;2023-05-20T09:59:42;63.68;54.63;83.65;;
58197;Laerm;43999;51.660;5.616;2023-05-20T10:02:12;65.85;56.86;84.89;;
58197;Laerm;43999;51.660;5.616;2023-05-20T10:04:46;67.73;55.54;84.70;;
58197;Laerm;43999;51.660;5.616;2023-05-20T10:19:36;67.02;55.90;84.93;;
58197;Laerm;43999;51.660;5.616;2023-05-20T10:22:10;67.55;53.16;87.44;;
58197;Laerm;43999;51.660;5.616;2023-05-20T10:24:43;67.63;54.82;84.59;;
58197;Laerm;43999;51.660;5.616;2023-05-20T10:27:13;65.74;55.61;82.54;;
58197;Laerm;43999;51.660;5.616;2023-05-20T10:29:51;62.11;50.76;75.23;;
58197;Laerm;43999;51.660;5.616;2023-05-20T10:32:52;65.04;56.52;75.70;;
58197;Laerm;43999;51.660;5.616;2023-05-20T10:35:27;67.54;51.33;91.10;;
58197;Laerm;43999;51.660;5.616;2023-05-20T10:38:10;63.82;51.00;78.16;;
58197;Laerm;43999;51.660;5.616;2023-05-20T10:40:39;68.09;56.67;86.26;;
58197;Laerm;43999;51.660;5.616;2023-05-20T10:43:24;65.59;54.74;81.34;;
58197;Laerm;43999;51.660;5.616;2023-05-20T10:45:55;67.59;53.39;87.11;;
58197;Laerm;43999;51.660;5.616;2023-05-20T10:48:33;67.41;57.53;81.90;;
58197;Laerm;43999;51.660;5.616;2023-05-20T10:51:02;65.56;52.88;83.25;;
58197;Laerm;43999;51.660;5.616;2023-05-20T10:53:41;66.25;51.93;87.67;;
58197;Laerm;43999;51.660;5.616;2023-05-20T10:56:26;67.03;52.96;90.73;;
58197;Laerm;43999;51.660;5.616;2023-05-20T10:58:54;66.42;52.63;86.34;;
58197;Laerm;43999;51.660;5.616;2023-05-20T11:01:32;67.96;54.34;86.32;;
58197;Laerm;43999;51.660;5.616;2023-05-20T11:04:05;66.41;53.87;83.81;;
58197;Laerm;43999;51.660;5.616;2023-05-20T11:06:35;64.05;51.44;82.42;;
58197;Laerm;43999;51.660;5.616;2023-05-20T11:09:07;64.51;53.00;80.06;;
58197;Laerm;43999;51.660;5.616;2023-05-20T11:11:49;62.38;52.26;81.10;;
58197;Laerm;43999;51.660;5.616;2023-05-20T11:14:27;64.92;55.46;82.51;;
58197;Laerm;43999;51.660;5.616;2023-05-20T11:17:02;64.54;53.03;81.62;;
58197;Laerm;43999;51.660;5.616;2023-05-20T11:19:36;64.05;54.46;74.62;;
58197;Laerm;43999;51.660;5.616;2023-05-20T11:22:16;66.31;52.98;93.29;;
58197;Laerm;43999;51.660;5.616;2023-05-20T11:24:45;66.93;53.26;80.37;;
58197;Laerm;43999;51.660;5.616;2023-05-20T11:27:15;68.98;53.62;88.83;;
58197;Laerm;43999;51.660;5.616;2023-05-20T11:29:44;65.37;56.76;77.05;;
58197;Laerm;43999;51.660;5.616;2023-05-20T11:32:11;64.48;57.43;77.51;;
58197;Laerm;43999;51.660;5.616;2023-05-20T11:34:39;65.22;52.41;83.76;;
58197;Laerm;43999;51.660;5.616;2023-05-20T11:37:09;66.20;54.32;79.74;;
58197;Laerm;43999;51.660;5.616;2023-05-20T11:39:38;64.51;54.86;79.38;;
58197;Laerm;43999;51.660;5.616;2023-05-20T11:42:06;66.48;55.25;81.76;;
58197;Laerm;43999;51.660;5.616;2023-05-20T11:44:34;65.06;54.08;80.46;;
58197;Laerm;43999;51.660;5.616;2023-05-20T11:47:02;64.99;57.35;78.14;;
58197;Laerm;43999;51.660;5.616;2023-05-20T11:49:38;65.97;54.99;79.41;;
58197;Laerm;43999;51.660;5.616;2023-05-20T11:52:08;63.94;53.89;73.38;;
58197;Laerm;43999;51.660;5.616;2023-05-20T11:54:38;64.21;55.14;76.81;;
58197;Laerm;43999;51.660;5.616;2023-05-20T11:57:05;63.86;55.85;74.27;;
58197;Laerm;43999;51.660;5.616;2023-05-20T11:59:34;65.95;52.33;80.42;;
58197;Laerm;43999;51.660;5.616;2023-05-20T12:02:01;65.60;55.71;79.02;;
58197;Laerm;43999;51.660;5.616;2023-05-20T12:04:29;64.20;54.36;80.68;;
58197;Laerm;43999;51.660;5.616;2023-05-20T12:06:56;65.45;54.52;82.08;;
58197;Laerm;43999;51.660;5.616;2023-05-20T12:09:24;64.79;54.97;81.07;;
58197;Laerm;43999;51.660;5.616;2023-05-20T12:11:52;63.69;53.11;76.58;;
58197;Laerm;43999;51.660;5.616;2023-05-20T12:14:22;63.48;52.31;83.56;;
58197;Laerm;43999;51.660;5.616;2023-05-20T12:16:49;68.49;54.85;89.07;;
58197;Laerm;43999;51.660;5.616;2023-05-20T12:19:18;63.76;51.44;78.70;;
58197;Laerm;43999;51.660;5.616;2023-05-20T12:21:46;65.01;56.48;79.25;;
58197;Laerm;43999;51.660;5.616;2023-05-20T12:24:13;64.67;54.33;77.73;;
58197;Laerm;43999;51.660;5.616;2023-05-20T12:26:40;63.20;54.55;75.26;;
58197;Laerm;43999;51.660;5.616;2023-05-20T12:29:08;63.36;54.90;75.96;;
58197;Laerm;43999;51.660;5.616;2023-05-20T12:31:35;70.11;54.26;92.65;;
58197;Laerm;43999;51.660;5.616;2023-05-20T12:34:03;66.42;55.84;81.14;;
58197;Laerm;43999;51.660;5.616;2023-05-20T12:36:30;64.86;55.68;78.22;;
58197;Laerm;43999;51.660;5.616;2023-05-20T12:38:58;64.15;54.75;80.67;;
58197;Laerm;43999;51.660;5.616;2023-05-20T12:41:25;64.73;54.32;85.22;;
58197;Laerm;43999;51.660;5.616;2023-05-20T12:43:53;62.66;51.69;77.16;;
58197;Laerm;43999;51.660;5.616;2023-05-20T12:46:20;63.60;55.07;74.34;;
58197;Laerm;43999;51.660;5.616;2023-05-20T12:48:48;67.04;57.92;80.66;;
58197;Laerm;43999;51.660;5.616;2023-05-20T12:51:16;62.58;52.17;73.78;;
58197;Laerm;43999;51.660;5.616;2023-05-20T12:53:45;64.54;52.21;83.66;;
58197;Laerm;43999;51.660;5.616;2023-05-20T12:56:14;63.29;54.54;77.81;;
58197;Laerm;43999;51.660;5.616;2023-05-20T12:58:42;66.74;56.61;82.29;;
58197;Laerm;43999;51.660;5.616;2023-05-20T13:01:09;64.94;56.06;81.81;;
58197;Laerm;43999;51.660;5.616;2023-05-20T13:03:37;65.69;53.66;80.93;;
58197;Laerm;43999;51.660;5.616;2023-05-20T13:06:05;70.43;55.54;87.53;;
58197;Laerm;43999;51.660;5.616;2023-05-20T13:08:34;66.85;52.96;83.18;;
58197;Laerm;43999;51.660;5.616;2023-05-20T13:11:03;64.60;54.32;82.47;;
58197;Laerm;43999;51.660;5.616;2023-05-20T13:13:31;68.50;54.40;84.28;;
58197;Laerm;43999;51.660;5.616;2023-05-20T13:16:00;68.68;54.63;90.65;;
58197;Laerm;43999;51.660;5.616;2023-05-20T13:18:27;67.40;55.05;81.39;;
58197;Laerm;43999;51.660;5.616;2023-05-20T13:20:55;64.91;52.60;76.40;;
58197;Laerm;43999;51.660;5.616;2023-05-20T13:23:22;67.16;51.90;90.54;;
58197;Laerm;43999;51.660;5.616;2023-05-20T13:25:50;71.11;51.76;91.59;;
58197;Laerm;43999;51.660;5.616;2023-05-20T13:28:18;69.77;52.04;92.09;;
58197;Laerm;43999;51.660;5.616;2023-05-20T13:30:46;65.73;54.30;79.31;;
58197;Laerm;43999;51.660;5.616;2023-05-20T13:33:16;66.28;55.01;87.20;;
58197;Laerm;43999;51.660;5.616;2023-05-20T13:35:43;66.55;53.81;89.37;;
58197;Laerm;43999;51.660;5.616;2023-05-20T13:38:10;63.69;53.47;77.52;;
58197;Laerm;43999;51.660;5.616;2023-05-20T13:40:38;64.60;57.44;74.52;;
58197;Laerm;43999;51.660;5.616;2023-05-20T13:43:05;64.65;53.72;87.17;;
58197;Laerm;43999;51.660;5.616;2023-05-20T13:45:33;63.76;53.20;75.34;;
58197;Laerm;43999;51.660;5.616;2023-05-20T13:48:00;64.34;53.93;77.41;;
58197;Laerm;43999;51.660;5.616;2023-05-20T13:50:28;66.20;54.76;76.66;;
58197;Laerm;43999;51.660;5.616;2023-05-20T13:52:55;64.73;54.12;76.50;;
58197;Laerm;43999;51.660;5.616;2023-05-20T13:55:23;64.77;57.45;80.64;;
58197;Laerm;43999;51.660;5.616;2023-05-20T13:57:51;63.85;55.87;77.89;;
58197;Laerm;43999;51.660;5.616;2023-05-20T14:00:22;63.40;53.57;79.12;;
58197;Laerm;43999;51.660;5.616;2023-05-20T14:02:49;67.85;54.14;85.53;;
58197;Laerm;43999;51.660;5.616;2023-05-20T14:05:17;60.67;50.15;69.76;;
58197;Laerm;43999;51.660;5.616;2023-05-20T14:07:44;63.82;53.44;76.30;;